createdAt,value
2022-11-24T00:00:28.882Z,86.30
2022-11-24T00:01:29.066Z,84.90
2022-11-24T00:02:28.950Z,86.00
2022-11-24T00:03:28.887Z,87.40
2022-11-24T00:04:28.837Z,88.00
2022-11-24T00:05:28.882Z,91.50
2022-11-24T00:06:28.807Z,91.10
2022-11-24T00:07:28.820Z,90.10
2022-11-24T00:08:28.738Z,102.40
2022-11-24T00:09:28.770Z,90.90
2022-11-24T00:10:28.747Z,90.50
2022-11-24T00:11:28.778Z,91.20
2022-11-24T00:12:28.699Z,90.50
2022-11-24T00:13:28.716Z,93.10
2022-11-24T00:14:28.688Z,90.20
2022-11-24T00:15:28.692Z,92.80
2022-11-24T00:16:28.707Z,85.90
2022-11-24T00:17:28.658Z,86.00
2022-11-24T00:18:28.642Z,98.70
2022-11-24T00:19:28.660Z,93.90
2022-11-24T00:20:28.624Z,90.80
2022-11-24T00:21:28.588Z,100.80
2022-11-24T00:22:28.656Z,98.80
2022-11-24T00:23:28.590Z,108.30
2022-11-24T00:24:28.573Z,94.70
2022-11-24T00:25:28.574Z,92.70
2022-11-24T00:26:28.623Z,94.40
2022-11-24T00:27:28.522Z,90.60
2022-11-24T00:28:28.533Z,99.20
2022-11-24T00:29:28.511Z,92.90
2022-11-24T00:30:28.593Z,102.00
2022-11-24T00:31:28.585Z,104.20
2022-11-24T00:32:28.476Z,100.20
2022-11-24T00:33:28.485Z,102.50
2022-11-24T00:34:28.441Z,98.40
2022-11-24T00:35:28.410Z,105.30
2022-11-24T00:36:28.395Z,100.40
2022-11-24T00:37:28.405Z,101.40
2022-11-24T00:38:28.380Z,100.50
2022-11-24T00:39:28.390Z,100.90
2022-11-24T00:40:33.592Z,109.50
2022-11-24T00:41:28.349Z,100.70
2022-11-24T00:42:28.448Z,114.50
2022-11-24T00:43:28.328Z,100.10
2022-11-24T00:44:28.291Z,103.60
2022-11-24T00:45:28.317Z,103.80
2022-11-24T00:46:28.449Z,105.50
2022-11-24T00:47:28.297Z,107.70
2022-11-24T00:48:28.276Z,108.80
2022-11-24T00:49:28.264Z,112.80
2022-11-24T00:50:28.208Z,122.20
2022-11-24T00:51:28.242Z,114.20
2022-11-24T00:52:28.226Z,127.60
2022-11-24T00:53:28.240Z,116.20
2022-11-24T00:54:28.202Z,109.80
2022-11-24T00:55:28.197Z,121.90
2022-11-24T00:56:28.162Z,109.40
2022-11-24T00:57:28.160Z,114.40
2022-11-24T00:58:28.127Z,105.60
2022-11-24T00:59:28.137Z,105.00
2022-11-24T01:00:28.118Z,108.10
2022-11-24T01:01:28.152Z,116.20
2022-11-24T01:02:28.118Z,110.20
2022-11-24T01:03:28.138Z,107.70
2022-11-24T01:04:28.044Z,103.00
2022-11-24T01:05:28.066Z,105.80
2022-11-24T01:06:28.016Z,109.10
2022-11-24T01:07:28.077Z,110.40
2022-11-24T01:08:28.040Z,104.20
2022-11-24T01:09:27.988Z,111.90
2022-11-24T01:10:27.995Z,109.80
2022-11-24T01:11:27.980Z,108.50
2022-11-24T01:12:27.945Z,106.40
2022-11-24T01:13:27.942Z,114.80
2022-11-24T01:14:27.936Z,108.90
2022-11-24T01:15:27.948Z,109.90
2022-11-24T01:16:27.955Z,120.10
2022-11-24T01:17:27.875Z,111.70
2022-11-24T01:18:27.879Z,124.30
2022-11-24T01:19:27.874Z,115.00
2022-11-24T01:20:27.905Z,112.60
2022-11-24T01:21:27.848Z,122.70
2022-11-24T01:22:27.860Z,113.30
2022-11-24T01:23:27.828Z,121.60
2022-11-24T01:24:27.781Z,115.60
2022-11-24T01:25:27.862Z,125.30
2022-11-24T01:26:27.776Z,121.80
2022-11-24T01:27:27.765Z,112.40
2022-11-24T01:28:27.794Z,111.30
2022-11-24T01:29:27.763Z,115.70
2022-11-24T01:30:27.732Z,128.60
2022-11-24T01:31:27.784Z,129.70
2022-11-24T01:32:27.684Z,130.00
2022-11-24T01:33:27.712Z,117.40
2022-11-24T01:34:27.686Z,121.50
2022-11-24T01:35:27.676Z,110.90
2022-11-24T01:36:27.654Z,112.70
2022-11-24T01:37:27.726Z,115.40
2022-11-24T01:38:27.628Z,114.30
2022-11-24T01:39:27.666Z,121.00
2022-11-24T01:40:27.593Z,118.70
2022-11-24T01:41:27.616Z,116.40
2022-11-24T01:42:27.585Z,107.50
2022-11-24T01:43:27.578Z,107.10
2022-11-24T01:44:27.571Z,107.10
2022-11-24T01:45:27.561Z,106.20
2022-11-24T01:46:27.571Z,103.90
2022-11-24T01:47:27.612Z,105.60
2022-11-24T01:48:28.358Z,105.30
2022-11-24T01:49:27.507Z,112.50
2022-11-24T01:50:27.547Z,104.60
2022-11-24T01:51:27.474Z,98.80
2022-11-24T01:52:27.856Z,102.20
2022-11-24T01:53:27.441Z,108.70
2022-11-24T01:54:27.425Z,110.50
2022-11-24T01:55:27.443Z,111.30
2022-11-24T01:56:27.428Z,105.30
2022-11-24T01:57:27.411Z,109.50
2022-11-24T01:58:27.396Z,103.20
2022-11-24T01:59:27.357Z,109.90
2022-11-24T02:00:27.362Z,111.50
2022-11-24T02:01:27.408Z,108.50
2022-11-24T02:02:27.405Z,104.90
2022-11-24T02:03:27.315Z,106.40
2022-11-24T02:04:27.349Z,117.30
2022-11-24T02:05:27.294Z,111.30
2022-11-24T02:06:27.267Z,107.40
2022-11-24T02:07:27.357Z,106.20
2022-11-24T02:08:27.297Z,115.40
2022-11-24T02:09:27.265Z,114.80
2022-11-24T02:10:27.251Z,110.30
2022-11-24T02:11:27.224Z,110.90
2022-11-24T02:12:27.214Z,117.70
2022-11-24T02:13:27.175Z,122.20
2022-11-24T02:14:27.197Z,128.90
2022-11-24T02:15:27.180Z,126.30
2022-11-24T02:16:27.143Z,118.90
2022-11-24T02:17:27.165Z,120.70
2022-11-24T02:18:27.130Z,105.50
2022-11-24T02:19:27.149Z,110.30
2022-11-24T02:20:27.087Z,116.00
2022-11-24T02:21:27.092Z,119.80
2022-11-24T02:22:27.085Z,122.20
2022-11-24T02:23:27.082Z,113.90
2022-11-24T02:24:27.060Z,116.30
2022-11-24T02:25:27.038Z,116.00
2022-11-24T02:26:27.000Z,107.90
2022-11-24T02:27:27.034Z,111.30
2022-11-24T02:28:27.024Z,111.60
2022-11-24T02:29:26.996Z,113.20
2022-11-24T02:30:27.040Z,112.90
2022-11-24T02:31:27.054Z,104.90
2022-11-24T02:32:26.938Z,105.50
2022-11-24T02:33:26.924Z,107.60
2022-11-24T02:34:26.937Z,105.90
2022-11-24T02:35:26.928Z,104.10
2022-11-24T02:36:26.904Z,106.40
2022-11-24T02:37:26.886Z,109.40
2022-11-24T02:38:26.861Z,117.40
2022-11-24T02:39:26.866Z,107.00
2022-11-24T02:40:26.868Z,115.30
2022-11-24T02:41:26.878Z,106.90
2022-11-24T02:42:26.856Z,110.20
2022-11-24T02:43:26.819Z,99.40
2022-11-24T02:44:26.784Z,97.20
2022-11-24T02:45:26.803Z,105.60
2022-11-24T02:46:26.858Z,103.80
2022-11-24T02:47:26.765Z,103.70
2022-11-24T02:48:26.791Z,106.10
2022-11-24T02:49:26.728Z,105.90
2022-11-24T02:50:26.736Z,112.20
2022-11-24T02:51:26.739Z,115.30
2022-11-24T02:52:26.704Z,95.70
2022-11-24T02:53:26.714Z,99.50
2022-11-24T02:54:26.735Z,97.40
2022-11-24T02:55:26.662Z,100.00
2022-11-24T02:56:26.691Z,106.00
2022-11-24T02:57:26.711Z,102.70
2022-11-24T02:58:26.712Z,106.60
2022-11-24T02:59:26.672Z,98.70
2022-11-24T03:00:26.640Z,95.70
2022-11-24T03:01:26.636Z,96.70
2022-11-24T03:02:26.637Z,102.30
2022-11-24T03:03:26.616Z,101.80
2022-11-24T03:04:26.578Z,98.40
2022-11-24T03:05:26.544Z,89.20
2022-11-24T03:06:26.562Z,92.90
2022-11-24T03:07:26.579Z,91.70
2022-11-24T03:08:26.504Z,96.20
2022-11-24T03:09:26.508Z,95.70
2022-11-24T03:10:26.500Z,91.50
2022-11-24T03:11:26.454Z,91.70
2022-11-24T03:12:26.428Z,93.00
2022-11-24T03:13:26.438Z,98.40
2022-11-24T03:14:26.414Z,100.60
2022-11-24T03:15:26.449Z,93.20
2022-11-24T03:16:26.445Z,88.80
2022-11-24T03:17:26.372Z,92.20
2022-11-24T03:18:26.372Z,96.00
2022-11-24T03:19:26.348Z,91.90
2022-11-24T03:20:26.347Z,92.60
2022-11-24T03:21:26.327Z,91.80
2022-11-24T03:22:26.312Z,91.50
2022-11-24T03:23:26.303Z,98.20
2022-11-24T03:24:26.296Z,101.60
2022-11-24T03:25:26.291Z,95.20
2022-11-24T03:26:26.265Z,87.60
2022-11-24T03:27:26.259Z,98.00
2022-11-24T03:28:26.237Z,94.50
2022-11-24T03:29:26.213Z,94.20
2022-11-24T03:30:26.244Z,92.30
2022-11-24T03:31:26.275Z,95.90
2022-11-24T03:32:26.163Z,100.10
2022-11-24T03:33:26.191Z,96.00
2022-11-24T03:34:26.168Z,95.30
2022-11-24T03:35:26.195Z,97.30
2022-11-24T03:36:26.139Z,87.10
2022-11-24T03:37:26.155Z,90.90
2022-11-24T03:38:26.120Z,98.30
2022-11-24T03:39:26.109Z,99.20
2022-11-24T03:40:26.090Z,100.70
2022-11-24T03:41:26.061Z,103.60
2022-11-24T03:42:26.046Z,93.60
2022-11-24T03:43:26.064Z,91.30
2022-11-24T03:44:26.044Z,96.40
2022-11-24T03:46:26.067Z,97.90
2022-11-24T03:47:26.062Z,99.30
2022-11-24T03:48:26.035Z,96.30
2022-11-24T03:49:25.963Z,99.10
2022-11-24T03:50:25.951Z,103.20
2022-11-24T03:51:25.941Z,92.00
2022-11-24T03:52:25.964Z,87.50
2022-11-24T03:53:25.931Z,86.00
2022-11-24T03:54:25.899Z,91.30
2022-11-24T03:55:25.951Z,89.70
2022-11-24T03:56:25.890Z,97.80
2022-11-24T03:57:25.888Z,91.10
2022-11-24T03:58:25.852Z,98.40
2022-11-24T03:59:25.853Z,90.50
2022-11-24T04:00:25.833Z,87.50
2022-11-24T04:01:25.817Z,96.30
2022-11-24T04:02:25.870Z,85.10
2022-11-24T04:03:25.802Z,91.10
2022-11-24T04:04:25.824Z,82.30
2022-11-24T04:05:25.809Z,94.30
2022-11-24T04:06:25.779Z,99.70
2022-11-24T04:07:25.791Z,97.30
2022-11-24T04:08:25.713Z,85.60
2022-11-24T04:09:25.723Z,87.00
2022-11-24T04:10:25.704Z,89.60
2022-11-24T04:11:25.709Z,85.10
2022-11-24T04:12:25.685Z,94.20
2022-11-24T04:13:25.665Z,99.50
2022-11-24T04:14:25.678Z,86.60
2022-11-24T04:15:25.628Z,89.90
2022-11-24T04:16:25.665Z,94.40
2022-11-24T04:17:25.630Z,93.60
2022-11-24T04:18:25.717Z,93.70
2022-11-24T04:19:25.592Z,98.70
2022-11-24T04:20:25.598Z,100.40
2022-11-24T04:21:25.606Z,98.60
2022-11-24T04:22:25.597Z,86.70
2022-11-24T04:23:25.550Z,82.50
2022-11-24T04:24:25.542Z,89.90
2022-11-24T04:25:25.504Z,88.40
2022-11-24T04:26:25.560Z,80.90
2022-11-24T04:27:25.504Z,84.80
2022-11-24T04:28:25.471Z,75.30
2022-11-24T04:29:25.479Z,84.10
2022-11-24T04:30:25.454Z,81.80
2022-11-24T04:31:25.542Z,87.40
2022-11-24T04:32:25.520Z,74.30
2022-11-24T04:33:25.411Z,83.30
2022-11-24T04:34:25.423Z,84.60
2022-11-24T04:35:25.370Z,84.50
2022-11-24T04:36:25.363Z,79.50
2022-11-24T04:37:25.355Z,76.60
2022-11-24T04:39:20.001Z,75.80
2022-11-24T04:39:30.738Z,70.50
2022-11-24T04:40:25.321Z,82.80
2022-11-24T04:41:25.407Z,85.00
2022-11-24T04:42:25.328Z,78.80
2022-11-24T04:43:25.287Z,72.60
2022-11-24T04:44:25.280Z,68.80
2022-11-24T04:45:25.276Z,75.70
2022-11-24T04:46:25.330Z,77.20
2022-11-24T04:47:25.229Z,79.60
2022-11-24T04:48:25.242Z,79.20
2022-11-24T04:49:25.219Z,75.40
2022-11-24T04:50:25.255Z,83.00
2022-11-24T04:51:25.194Z,90.70
2022-11-24T04:52:25.162Z,80.30
2022-11-24T04:53:25.171Z,80.80
2022-11-24T04:54:25.137Z,96.60
2022-11-24T04:55:25.144Z,82.20
2022-11-24T04:56:25.154Z,85.70
2022-11-24T04:57:25.108Z,83.50
2022-11-24T04:58:25.116Z,81.20
2022-11-24T04:59:25.085Z,86.10
2022-11-24T05:00:25.129Z,81.60
2022-11-24T05:01:25.073Z,83.40
2022-11-24T05:02:25.061Z,81.90
2022-11-24T05:03:25.048Z,84.00
2022-11-24T05:04:25.129Z,72.00
2022-11-24T05:05:25.025Z,78.20
2022-11-24T05:06:24.993Z,82.00
2022-11-24T05:07:24.982Z,70.40
2022-11-24T05:08:24.995Z,82.50
2022-11-24T05:09:36.938Z,79.20
2022-11-24T05:10:24.930Z,83.20
2022-11-24T05:11:24.920Z,77.90
2022-11-24T05:12:24.895Z,78.70
2022-11-24T05:13:24.895Z,70.30
2022-11-24T05:14:24.932Z,70.50
2022-11-24T05:15:24.853Z,70.20
2022-11-24T05:16:24.882Z,65.90
2022-11-24T05:17:24.856Z,70.00
2022-11-24T05:18:24.823Z,71.40
2022-11-24T05:19:28.486Z,74.50
2022-11-24T05:20:24.800Z,75.80
2022-11-24T05:21:24.788Z,73.20
2022-11-24T05:22:24.784Z,78.90
2022-11-24T05:23:24.774Z,75.60
2022-11-24T05:24:24.750Z,76.50
2022-11-24T05:25:24.773Z,80.00
2022-11-24T05:26:24.739Z,68.70
2022-11-24T05:27:24.729Z,71.60
2022-11-24T05:28:24.732Z,73.10
2022-11-24T05:29:24.673Z,72.70
2022-11-24T05:30:24.667Z,69.90
2022-11-24T05:31:24.747Z,71.30
2022-11-24T05:32:24.634Z,73.90
2022-11-24T05:33:24.635Z,72.10
2022-11-24T05:34:24.658Z,74.50
2022-11-24T05:35:24.596Z,67.10
2022-11-24T05:36:24.609Z,65.30
2022-11-24T05:37:24.585Z,70.10
2022-11-24T05:38:24.615Z,69.00
2022-11-24T05:39:24.547Z,71.30
2022-11-24T05:40:24.541Z,68.50
2022-11-24T05:41:24.523Z,71.70
2022-11-24T05:42:24.530Z,65.70
2022-11-24T05:43:24.504Z,65.60
2022-11-24T05:44:24.495Z,67.90
2022-11-24T05:45:24.465Z,63.60
2022-11-24T05:46:24.495Z,59.70
2022-11-24T05:47:24.436Z,53.40
2022-11-24T05:48:24.438Z,61.20
2022-11-24T05:49:24.453Z,66.70
2022-11-24T05:50:24.436Z,64.10
2022-11-24T05:51:24.453Z,63.20
2022-11-24T05:52:24.393Z,65.40
2022-11-24T05:53:24.363Z,70.30
2022-11-24T05:54:24.357Z,67.70
2022-11-24T05:55:24.362Z,66.90
2022-11-24T05:56:24.339Z,61.60
2022-11-24T05:57:24.333Z,61.40
2022-11-24T05:58:24.347Z,67.20
2022-11-24T05:59:24.308Z,66.80
2022-11-24T06:00:24.270Z,65.90
2022-11-24T06:01:24.303Z,66.30
2022-11-24T06:02:24.371Z,62.20
2022-11-24T06:03:24.302Z,65.40
2022-11-24T06:04:24.249Z,66.80
2022-11-24T06:05:24.208Z,64.40
2022-11-24T06:06:24.189Z,69.60
2022-11-24T06:07:24.287Z,68.90
2022-11-24T06:08:29.553Z,67.40
2022-11-24T06:09:24.177Z,66.00
2022-11-24T06:10:24.160Z,70.30
2022-11-24T06:11:24.127Z,65.60
2022-11-24T06:12:24.140Z,67.50
2022-11-24T06:13:24.198Z,66.30
2022-11-24T06:14:24.100Z,66.30
2022-11-24T06:15:24.079Z,65.80
2022-11-24T06:16:24.130Z,63.30
2022-11-24T06:17:24.056Z,65.40
2022-11-24T06:18:24.061Z,73.10
2022-11-24T06:19:24.031Z,69.80
2022-11-24T06:20:28.279Z,61.70
2022-11-24T06:21:24.023Z,67.90
2022-11-24T06:22:23.994Z,65.50
2022-11-24T06:23:24.012Z,67.40
2022-11-24T06:24:23.980Z,62.00
2022-11-24T06:25:23.974Z,61.20
2022-11-24T06:26:23.970Z,65.00
2022-11-24T06:27:23.948Z,68.20
2022-11-24T06:28:23.938Z,69.80
2022-11-24T06:29:23.941Z,64.80
2022-11-24T06:30:23.922Z,64.20
2022-11-24T06:31:23.937Z,60.20
2022-11-24T06:32:23.892Z,60.20
2022-11-24T06:33:23.880Z,58.70
2022-11-24T06:34:23.892Z,64.60
2022-11-24T06:35:23.848Z,75.30
2022-11-24T06:36:23.863Z,66.00
2022-11-24T06:37:23.806Z,69.80
2022-11-24T06:38:24.482Z,64.00
2022-11-24T06:39:23.780Z,67.80
2022-11-24T06:40:23.785Z,66.50
2022-11-24T06:41:23.833Z,69.60
2022-11-24T06:42:23.750Z,70.00
2022-11-24T06:43:23.758Z,67.40
2022-11-24T06:44:23.780Z,62.10
2022-11-24T06:45:23.753Z,66.00
2022-11-24T06:46:23.844Z,64.60
2022-11-24T06:47:23.804Z,63.80
2022-11-24T06:48:23.704Z,59.00
2022-11-24T06:49:23.694Z,59.80
2022-11-24T06:50:25.218Z,58.50
2022-11-24T06:51:23.660Z,58.90
2022-11-24T06:52:23.677Z,65.30
2022-11-24T06:53:23.716Z,63.60
2022-11-24T06:54:23.675Z,61.40
2022-11-24T06:55:23.596Z,70.00
2022-11-24T06:56:23.652Z,69.60
2022-11-24T06:57:23.589Z,68.20
2022-11-24T06:58:23.563Z,70.40
2022-11-24T06:59:23.550Z,74.20
2022-11-24T07:00:23.532Z,72.20
2022-11-24T07:01:23.636Z,81.80
2022-11-24T07:02:23.479Z,70.50
2022-11-24T07:03:23.530Z,67.80
2022-11-24T07:04:23.484Z,64.80
2022-11-24T07:05:23.521Z,67.70
2022-11-24T07:06:23.456Z,65.30
2022-11-24T07:07:23.504Z,69.30
2022-11-24T07:08:23.408Z,64.60
2022-11-24T07:09:23.392Z,55.30
2022-11-24T07:10:23.380Z,57.10
2022-11-24T07:11:23.372Z,59.40
2022-11-24T07:12:23.364Z,64.40
2022-11-24T07:13:23.331Z,61.20
2022-11-24T07:14:23.340Z,67.60
2022-11-24T07:15:23.313Z,64.60
2022-11-24T07:16:23.343Z,60.70
2022-11-24T07:17:23.302Z,63.60
2022-11-24T07:18:23.326Z,62.80
2022-11-24T07:19:25.220Z,62.50
2022-11-24T07:20:23.295Z,64.70
2022-11-24T07:21:23.294Z,65.60
2022-11-24T07:22:23.466Z,57.70
2022-11-24T07:23:23.258Z,56.40
2022-11-24T07:24:23.281Z,58.80
2022-11-24T07:25:23.209Z,57.30
2022-11-24T07:26:23.294Z,57.30
2022-11-24T07:27:23.255Z,56.80
2022-11-24T07:28:23.202Z,58.50
2022-11-24T07:29:23.260Z,55.70
2022-11-24T07:30:23.175Z,58.70
2022-11-24T07:31:23.238Z,53.90
2022-11-24T07:32:23.354Z,54.90
2022-11-24T07:33:23.205Z,60.50
2022-11-24T07:34:23.175Z,57.50
2022-11-24T07:35:23.080Z,57.10
2022-11-24T07:36:23.167Z,56.60
2022-11-24T07:37:26.758Z,56.30
2022-11-24T07:38:23.186Z,60.00
2022-11-24T07:39:23.087Z,54.60
2022-11-24T07:40:23.059Z,55.20
2022-11-24T07:41:23.011Z,56.00
2022-11-24T07:42:23.112Z,57.90
2022-11-24T07:43:23.104Z,60.20
2022-11-24T07:44:23.804Z,56.10
2022-11-24T07:45:23.038Z,56.60
2022-11-24T07:46:23.291Z,55.20
2022-11-24T07:47:22.991Z,51.10
2022-11-24T07:48:22.886Z,53.00
2022-11-24T07:49:22.897Z,53.30
2022-11-24T07:50:22.889Z,51.90
2022-11-24T07:51:22.996Z,49.80
2022-11-24T07:52:22.856Z,49.70
2022-11-24T07:53:22.856Z,47.80
2022-11-24T07:54:22.819Z,49.00
2022-11-24T07:55:22.814Z,49.00
2022-11-24T07:56:22.790Z,47.40
2022-11-24T07:57:22.797Z,47.70
2022-11-24T07:58:22.797Z,47.80
2022-11-24T07:59:22.813Z,47.10
2022-11-24T08:00:22.817Z,48.60
2022-11-24T08:01:22.764Z,44.20
2022-11-24T08:02:22.762Z,46.30
2022-11-24T08:03:22.812Z,46.70
2022-11-24T08:04:22.733Z,49.90
2022-11-24T08:05:22.727Z,48.10
2022-11-24T08:06:26.157Z,49.10
2022-11-24T08:07:22.776Z,50.70
2022-11-24T08:08:22.681Z,51.20
2022-11-24T08:09:22.646Z,49.60
2022-11-24T08:10:22.814Z,49.20
2022-11-24T08:11:22.654Z,50.90
2022-11-24T08:12:22.601Z,49.70
2022-11-24T08:13:22.624Z,51.30
2022-11-24T08:14:22.620Z,46.30
2022-11-24T08:15:22.621Z,47.10
2022-11-24T08:16:22.583Z,48.70
2022-11-24T08:17:22.523Z,49.80
2022-11-24T08:18:22.538Z,47.20
2022-11-24T08:19:22.507Z,48.40
2022-11-24T08:20:22.499Z,47.20
2022-11-24T08:21:22.640Z,44.40
2022-11-24T08:22:22.525Z,44.30
2022-11-24T08:23:22.488Z,49.70
2022-11-24T08:24:22.520Z,48.70
2022-11-24T08:25:22.486Z,48.20
2022-11-24T08:26:22.440Z,47.00
2022-11-24T08:27:22.445Z,49.70
2022-11-24T08:28:22.407Z,48.00
2022-11-24T08:29:22.427Z,44.90
2022-11-24T08:30:22.420Z,47.40
2022-11-24T08:31:22.423Z,46.70
2022-11-24T08:32:22.681Z,49.60
2022-11-24T08:33:22.377Z,57.80
2022-11-24T08:34:22.583Z,52.60
2022-11-24T08:35:22.282Z,55.60
2022-11-24T08:36:22.313Z,49.40
2022-11-24T08:37:22.305Z,48.20
2022-11-24T08:38:22.336Z,48.80
2022-11-24T08:39:22.247Z,49.80
2022-11-24T08:40:22.263Z,50.30
2022-11-24T08:41:22.250Z,48.00
2022-11-24T08:42:22.279Z,48.00
2022-11-24T08:43:22.180Z,48.80
2022-11-24T08:44:22.192Z,48.50
2022-11-24T08:45:24.687Z,51.70
2022-11-24T08:46:22.233Z,47.90
2022-11-24T08:47:22.178Z,48.60
2022-11-24T08:48:22.141Z,46.40
2022-11-24T08:49:22.293Z,47.80
2022-11-24T08:50:22.091Z,48.30
2022-11-24T08:51:22.075Z,46.90
2022-11-24T08:52:22.071Z,47.40
2022-11-24T08:53:22.078Z,45.30
2022-11-24T08:54:22.077Z,46.20
2022-11-24T08:55:22.058Z,43.90
2022-11-24T08:56:22.040Z,44.50
2022-11-24T08:57:22.137Z,44.50
2022-11-24T08:58:22.010Z,44.00
2022-11-24T08:59:22.043Z,45.10
2022-11-24T09:00:22.134Z,44.60
2022-11-24T09:01:22.015Z,45.40
2022-11-24T09:02:21.964Z,45.10
2022-11-24T09:03:21.956Z,43.00
2022-11-24T09:04:22.016Z,43.50
2022-11-24T09:05:50.233Z,41.80
2022-11-24T09:06:21.926Z,44.60
2022-11-24T09:07:21.935Z,43.80
2022-11-24T09:08:21.853Z,45.50
2022-11-24T09:09:21.848Z,42.00
2022-11-24T09:10:21.887Z,43.30
2022-11-24T09:11:21.856Z,45.30
2022-11-24T09:12:21.845Z,44.30
2022-11-24T09:13:21.809Z,45.40
2022-11-24T09:14:21.807Z,45.10
2022-11-24T09:15:21.755Z,43.60
2022-11-24T09:16:21.828Z,42.80
2022-11-24T09:17:21.732Z,43.70
2022-11-24T09:18:25.173Z,43.90
2022-11-24T09:19:21.713Z,39.80
2022-11-24T09:20:21.791Z,44.50
2022-11-24T09:21:21.695Z,42.50
2022-11-24T09:22:21.666Z,44.00
2022-11-24T09:23:21.654Z,44.40
2022-11-24T09:24:21.660Z,44.40
2022-11-24T09:25:21.636Z,43.20
2022-11-24T09:26:21.657Z,42.40
2022-11-24T09:27:21.623Z,38.60
2022-11-24T09:28:21.609Z,40.40
2022-11-24T09:29:21.589Z,45.50
2022-11-24T09:30:21.666Z,44.40
2022-11-24T09:31:21.651Z,44.30
2022-11-24T09:32:21.564Z,41.50
2022-11-24T09:33:21.532Z,43.10
2022-11-24T09:34:21.557Z,39.60
2022-11-24T09:35:21.502Z,42.10
2022-11-24T09:36:21.545Z,38.90
2022-11-24T09:37:21.497Z,43.10
2022-11-24T09:38:21.524Z,41.10
2022-11-24T09:39:21.445Z,41.20
2022-11-24T09:40:21.546Z,39.90
2022-11-24T09:41:21.412Z,39.80
2022-11-24T09:42:21.449Z,38.80
2022-11-24T09:43:21.416Z,40.30
2022-11-24T09:44:21.399Z,40.50
2022-11-24T09:45:35.653Z,39.80
2022-11-24T09:46:21.411Z,40.40
2022-11-24T09:47:21.369Z,38.70
2022-11-24T09:48:21.346Z,36.50
2022-11-24T09:49:21.317Z,36.70
2022-11-24T09:50:21.313Z,36.40
2022-11-24T09:51:21.302Z,36.70
2022-11-24T09:52:21.269Z,37.20
2022-11-24T09:53:21.278Z,37.60
2022-11-24T09:54:21.268Z,33.70
2022-11-24T09:55:21.227Z,37.30
2022-11-24T09:56:21.227Z,37.70
2022-11-24T09:57:21.226Z,39.00
2022-11-24T09:58:21.223Z,38.10
2022-11-24T09:59:21.201Z,39.00
2022-11-24T10:00:21.214Z,35.20
2022-11-24T10:01:21.256Z,34.20
2022-11-24T10:02:21.143Z,33.10
2022-11-24T10:03:21.129Z,34.10
2022-11-24T10:04:21.148Z,45.30
2022-11-24T10:05:21.130Z,38.50
2022-11-24T10:06:21.094Z,35.30
2022-11-24T10:07:21.168Z,34.00
2022-11-24T10:08:21.079Z,32.60
2022-11-24T10:09:21.055Z,32.50
2022-11-24T10:10:24.738Z,35.50
2022-11-24T10:11:21.061Z,32.40
2022-11-24T10:12:21.025Z,31.80
2022-11-24T10:13:20.988Z,32.20
2022-11-24T10:14:21.009Z,32.10
2022-11-24T10:15:20.990Z,32.10
2022-11-24T10:16:21.085Z,31.80
2022-11-24T10:17:20.939Z,33.30
2022-11-24T10:18:20.941Z,31.90
2022-11-24T10:19:20.927Z,32.50
2022-11-24T10:20:20.970Z,31.90
2022-11-24T10:21:20.910Z,31.10
2022-11-24T10:22:20.892Z,31.20
2022-11-24T10:23:20.881Z,31.60
2022-11-24T10:24:20.871Z,32.90
2022-11-24T10:25:20.844Z,32.60
2022-11-24T10:26:20.877Z,29.90
2022-11-24T10:27:20.823Z,30.70
2022-11-24T10:28:20.821Z,31.80
2022-11-24T10:29:20.788Z,30.00
2022-11-24T10:30:20.789Z,29.40
2022-11-24T10:31:20.830Z,28.80
2022-11-24T10:32:20.801Z,27.90
2022-11-24T10:33:24.289Z,27.90
2022-11-24T10:34:20.759Z,30.30
2022-11-24T10:35:20.721Z,30.10
2022-11-24T10:36:20.716Z,28.30
2022-11-24T10:37:20.696Z,27.30
2022-11-24T10:38:20.700Z,27.40
2022-11-24T10:39:20.675Z,26.10
2022-11-24T10:40:48.663Z,26.50
2022-11-24T10:41:20.653Z,25.60
2022-11-24T10:42:20.616Z,27.00
2022-11-24T10:43:20.637Z,26.20
2022-11-24T10:44:20.614Z,27.00
2022-11-24T10:45:20.583Z,27.20
2022-11-24T10:46:20.633Z,27.50
2022-11-24T10:47:20.555Z,28.40
2022-11-24T10:48:20.577Z,27.60
2022-11-24T10:49:20.694Z,28.40
2022-11-24T10:50:20.755Z,27.40
2022-11-24T10:51:20.525Z,27.00
2022-11-24T10:52:20.503Z,26.80
2022-11-24T10:53:20.524Z,27.80
2022-11-24T10:54:20.481Z,32.30
2022-11-24T10:55:21.680Z,27.50
2022-11-24T10:56:20.470Z,29.90
2022-11-24T10:57:20.431Z,27.70
2022-11-24T10:58:20.417Z,28.00
2022-11-24T10:59:20.455Z,28.80
2022-11-24T11:00:20.443Z,28.10
2022-11-24T11:01:20.466Z,28.20
2022-11-24T11:02:20.479Z,29.20
2022-11-24T11:03:20.762Z,28.90
2022-11-24T11:04:20.407Z,28.70
2022-11-24T11:05:20.375Z,27.90
2022-11-24T11:06:20.347Z,29.80
2022-11-24T11:07:20.432Z,29.30
2022-11-24T11:08:20.327Z,27.30
2022-11-24T11:09:20.365Z,28.40
2022-11-24T11:10:20.269Z,28.90
2022-11-24T11:11:20.328Z,28.60
2022-11-24T11:12:42.922Z,28.80
2022-11-24T11:13:20.261Z,28.30
2022-11-24T11:14:20.253Z,28.30
2022-11-24T11:15:20.210Z,28.00
2022-11-24T11:16:20.270Z,28.50
2022-11-24T11:17:20.171Z,28.40
2022-11-24T11:18:20.184Z,29.30
2022-11-24T11:19:47.225Z,28.60
2022-11-24T11:20:20.143Z,29.40
2022-11-24T11:21:20.118Z,28.00
2022-11-24T11:22:20.093Z,29.60
2022-11-24T11:23:20.080Z,29.60
2022-11-24T11:24:20.082Z,36.50
2022-11-24T11:25:20.086Z,30.00
2022-11-24T11:26:20.096Z,28.90
2022-11-24T11:27:20.039Z,30.50
2022-11-24T11:28:20.016Z,27.70
2022-11-24T11:31:21.835Z,27.10
2022-11-24T11:34:35.156Z,26.10
2022-11-24T11:35:19.961Z,26.70
2022-11-24T11:36:19.960Z,25.30
2022-11-24T11:37:19.946Z,26.70
2022-11-24T11:38:19.950Z,26.90
2022-11-24T11:39:19.904Z,26.40
2022-11-24T11:40:19.947Z,26.30
2022-11-24T11:41:19.884Z,27.70
2022-11-24T11:42:45.443Z,26.80
2022-11-24T11:43:19.859Z,26.50
2022-11-24T11:44:19.857Z,28.30
2022-11-24T11:45:19.817Z,28.60
2022-11-24T11:46:19.887Z,28.60
2022-11-24T11:47:19.812Z,28.60
2022-11-24T11:48:19.801Z,28.00
2022-11-24T11:49:19.732Z,28.00
2022-11-24T11:50:19.805Z,26.60
2022-11-24T11:51:24.247Z,25.00
2022-11-24T11:52:19.843Z,24.80
2022-11-24T11:53:19.683Z,25.40
2022-11-24T11:54:19.728Z,25.70
2022-11-24T11:55:19.706Z,26.80
2022-11-24T11:56:19.718Z,26.90
2022-11-24T11:57:19.667Z,26.60
2022-11-24T11:58:19.646Z,26.00
2022-11-24T11:59:19.613Z,26.30
2022-11-24T12:00:19.617Z,26.90
2022-11-24T12:01:19.618Z,26.10
2022-11-24T12:02:19.774Z,28.50
2022-11-24T12:03:19.692Z,26.10
2022-11-24T12:04:19.645Z,26.90
2022-11-24T12:05:19.583Z,28.10
2022-11-24T12:06:19.595Z,26.80
2022-11-24T12:07:19.648Z,28.80
2022-11-24T12:08:21.522Z,28.60
2022-11-24T12:09:20.956Z,28.60
2022-11-24T12:10:19.474Z,28.40
2022-11-24T12:11:19.482Z,28.60
2022-11-24T12:12:19.457Z,29.20
2022-11-24T12:13:19.433Z,28.80
2022-11-24T12:14:19.453Z,28.50
2022-11-24T12:15:19.440Z,27.60
2022-11-24T12:16:19.458Z,27.70
2022-11-24T12:17:19.401Z,27.50
2022-11-24T12:18:48.380Z,26.50
2022-11-24T12:19:19.370Z,26.40
2022-11-24T12:20:19.373Z,26.70
2022-11-24T12:21:24.804Z,26.70
2022-11-24T12:22:19.361Z,25.70
2022-11-24T12:23:19.551Z,25.10
2022-11-24T12:24:19.445Z,25.90
2022-11-24T12:25:19.325Z,27.00
2022-11-24T12:26:19.323Z,25.60
2022-11-24T12:27:22.924Z,26.30
2022-11-24T12:28:19.296Z,25.00
2022-11-24T12:29:19.245Z,26.20
2022-11-24T12:30:19.280Z,25.70
2022-11-24T12:31:19.276Z,26.90
2022-11-24T12:32:20.230Z,28.20
2022-11-24T12:33:19.199Z,26.00
2022-11-24T12:34:19.207Z,25.80
2022-11-24T12:35:19.177Z,27.60
2022-11-24T12:36:19.226Z,26.00
2022-11-24T12:37:19.206Z,25.90
2022-11-24T12:38:19.174Z,26.00
2022-11-24T12:39:19.166Z,25.70
2022-11-24T12:40:19.086Z,24.80
2022-11-24T12:41:40.338Z,24.90
2022-11-24T12:42:19.085Z,23.10
2022-11-24T12:43:19.148Z,25.00
2022-11-24T12:44:19.046Z,25.40
2022-11-24T12:45:19.062Z,24.80
2022-11-24T12:46:19.527Z,24.10
2022-11-24T12:47:19.001Z,24.30
2022-11-24T12:48:18.960Z,23.40
2022-11-24T12:49:19.010Z,23.90
2022-11-24T12:50:18.974Z,23.90
2022-11-24T12:51:18.958Z,25.50
2022-11-24T12:52:18.925Z,23.80